createdAt,value
2023-05-13T00:01:55.611Z,16.91
2023-05-13T00:04:26.120Z,16.88
2023-05-13T00:06:56.605Z,16.83
2023-05-13T00:09:27.724Z,16.80
2023-05-13T00:11:58.245Z,16.77
2023-05-13T00:14:28.678Z,16.75
2023-05-13T00:16:59.606Z,16.74
2023-05-13T00:19:30.127Z,16.72
2023-05-13T00:22:00.715Z,16.70
2023-05-13T00:24:31.167Z,16.69
2023-05-13T00:27:01.612Z,16.68
2023-05-13T00:29:32.550Z,16.66
2023-05-13T00:32:03.480Z,16.65
2023-05-13T00:34:34.024Z,16.64
2023-05-13T00:37:05.067Z,16.61
2023-05-13T00:39:35.674Z,16.59
2023-05-13T00:42:06.595Z,16.58
2023-05-13T00:44:37.382Z,16.55
2023-05-13T00:47:08.731Z,16.53
2023-05-13T00:49:39.460Z,16.49
2023-05-13T00:52:10.129Z,16.46
2023-05-13T00:54:42.162Z,16.43
2023-05-13T00:57:12.655Z,16.40
2023-05-13T00:59:43.136Z,16.37
2023-05-13T01:02:20.923Z,16.35
2023-05-13T01:05:01.079Z,16.32
2023-05-13T01:07:43.481Z,16.30
2023-05-13T01:10:22.398Z,16.27
2023-05-13T01:12:59.192Z,16.24
2023-05-13T01:15:31.047Z,16.21
2023-05-13T01:18:02.325Z,16.17
2023-05-13T01:20:34.702Z,16.11
2023-05-13T01:23:06.308Z,16.08
2023-05-13T01:25:37.870Z,16.05
2023-05-13T01:28:09.329Z,16.02
2023-05-13T01:30:40.489Z,16.01
2023-05-13T01:33:11.781Z,15.98
2023-05-13T01:35:42.762Z,15.96
2023-05-13T01:38:15.926Z,15.94
2023-05-13T01:40:49.636Z,15.91
2023-05-13T01:43:20.140Z,15.88
2023-05-13T01:45:51.626Z,15.83
2023-05-13T01:48:22.681Z,15.79
2023-05-13T01:50:53.722Z,15.75
2023-05-13T01:53:24.444Z,15.71
2023-05-13T01:55:56.201Z,15.68
2023-05-13T01:58:26.608Z,15.67
2023-05-13T02:00:58.072Z,15.65
2023-05-13T02:03:28.689Z,15.63
2023-05-13T02:05:59.312Z,15.60
2023-05-13T02:08:29.809Z,15.57
2023-05-13T02:11:01.134Z,15.54
2023-05-13T02:13:32.420Z,15.54
2023-05-13T02:16:03.470Z,15.50
2023-05-13T02:18:34.076Z,15.48
2023-05-13T02:21:04.747Z,15.46
2023-05-13T02:23:35.325Z,15.46
2023-05-13T02:26:05.846Z,15.43
2023-05-13T02:28:36.685Z,15.41
2023-05-13T02:31:07.706Z,15.39
2023-05-13T02:33:38.256Z,15.36
2023-05-13T02:36:09.391Z,15.34
2023-05-13T02:38:40.103Z,15.33
2023-05-13T02:41:10.881Z,15.32
2023-05-13T02:43:41.429Z,15.30
2023-05-13T02:46:12.062Z,15.29
2023-05-13T02:48:42.682Z,15.27
2023-05-13T02:51:13.149Z,15.25
2023-05-13T02:53:44.037Z,15.24
2023-05-13T02:56:17.069Z,15.22
2023-05-13T02:58:47.573Z,15.21
2023-05-13T03:01:18.311Z,15.19
2023-05-13T03:03:48.961Z,15.18
2023-05-13T03:06:19.536Z,15.17
2023-05-13T03:08:50.356Z,15.15
2023-05-13T03:11:21.447Z,15.14
2023-05-13T03:13:51.897Z,15.13
2023-05-13T03:16:22.418Z,15.12
2023-05-13T03:18:53.076Z,15.11
2023-05-13T03:21:23.729Z,15.09
2023-05-13T03:23:54.514Z,15.05
2023-05-13T03:26:25.118Z,15.02
2023-05-13T03:28:55.614Z,14.98
2023-05-13T03:31:27.159Z,14.95
2023-05-13T03:33:58.036Z,14.91
2023-05-13T03:36:29.078Z,14.88
2023-05-13T03:38:59.649Z,14.84
2023-05-13T03:41:30.197Z,14.81
2023-05-13T03:44:01.621Z,14.79
2023-05-13T03:46:32.273Z,14.77
2023-05-13T03:49:03.242Z,14.77
2023-05-13T03:51:34.392Z,14.75
2023-05-13T03:54:05.857Z,14.74
2023-05-13T03:56:36.390Z,14.73
2023-05-13T03:59:06.937Z,14.69
2023-05-13T04:01:41.050Z,14.67
2023-05-13T04:04:12.798Z,14.65
2023-05-13T04:06:43.249Z,14.63
2023-05-13T04:09:13.710Z,14.62
2023-05-13T04:11:46.058Z,14.61
2023-05-13T04:14:16.571Z,14.60
2023-05-13T04:16:47.195Z,14.58
2023-05-13T04:19:18.294Z,14.57
2023-05-13T04:21:48.793Z,14.56
2023-05-13T04:24:19.358Z,14.55
2023-05-13T04:26:53.054Z,14.54
2023-05-13T04:29:23.765Z,14.54
2023-05-13T04:31:54.377Z,14.55
2023-05-13T04:34:25.093Z,14.55
2023-05-13T04:36:56.239Z,14.54
2023-05-13T04:39:26.705Z,14.56
2023-05-13T04:41:57.148Z,14.58
2023-05-13T04:44:27.885Z,14.59
2023-05-13T04:46:58.337Z,14.61
2023-05-13T04:49:28.847Z,14.62
2023-05-13T04:52:02.265Z,14.63
2023-05-13T04:54:35.481Z,14.63
2023-05-13T04:57:06.717Z,14.64
2023-05-13T04:59:37.313Z,14.65
2023-05-13T05:02:08.138Z,14.66
2023-05-13T05:04:39.054Z,14.67
2023-05-13T05:07:15.097Z,14.69
2023-05-13T05:09:45.822Z,14.71
2023-05-13T05:12:16.495Z,14.74
2023-05-13T05:14:47.083Z,14.75
2023-05-13T05:17:19.058Z,14.77
2023-05-13T05:19:49.821Z,14.79
2023-05-13T05:22:20.376Z,14.81
2023-05-13T05:24:50.838Z,14.82
2023-05-13T05:27:21.308Z,14.83
2023-05-13T05:29:51.755Z,14.84
2023-05-13T05:32:23.377Z,14.86
2023-05-13T05:34:54.060Z,14.88
2023-05-13T05:37:24.582Z,14.90
2023-05-13T05:39:55.255Z,14.93
2023-05-13T05:42:25.750Z,14.96
2023-05-13T05:44:56.362Z,15.00
2023-05-13T05:47:27.342Z,15.04
2023-05-13T05:49:57.978Z,15.09
2023-05-13T05:52:28.714Z,15.14
2023-05-13T05:54:59.452Z,15.19
2023-05-13T05:57:30.398Z,15.25
2023-05-13T06:00:01.125Z,15.29
2023-05-13T06:02:32.105Z,15.33
2023-05-13T06:05:03.083Z,15.35
2023-05-13T06:07:33.568Z,15.37
2023-05-13T06:10:05.026Z,15.40
2023-05-13T06:12:36.950Z,15.43
2023-05-13T06:15:10.681Z,15.45
2023-05-13T06:17:41.588Z,15.47
2023-05-13T06:20:13.921Z,15.47
2023-05-13T06:22:44.381Z,15.49
2023-05-13T06:25:15.128Z,15.51
2023-05-13T06:27:45.670Z,15.53
2023-05-13T06:30:16.864Z,15.56
2023-05-13T06:33:00.149Z,15.61
2023-05-13T06:35:34.107Z,15.67
2023-05-13T06:38:08.155Z,15.72
2023-05-13T06:40:39.168Z,15.78
2023-05-13T06:43:09.997Z,15.83
2023-05-13T06:45:41.687Z,15.91
2023-05-13T06:48:12.283Z,15.96
2023-05-13T06:50:42.859Z,15.99
2023-05-13T06:53:13.420Z,16.02
2023-05-13T06:55:43.910Z,16.04
2023-05-13T06:58:14.542Z,16.06
2023-05-13T07:00:46.960Z,16.07
2023-05-13T07:03:17.846Z,16.07
2023-05-13T07:05:48.416Z,16.07
2023-05-13T07:08:18.965Z,16.09
2023-05-13T07:10:49.438Z,16.11
2023-05-13T07:13:20.702Z,16.14
2023-05-13T07:15:51.337Z,16.12
2023-05-13T07:18:22.002Z,16.11
2023-05-13T07:20:52.643Z,16.11
2023-05-13T07:23:23.175Z,16.14
2023-05-13T07:25:53.885Z,16.18
2023-05-13T07:28:24.308Z,16.18
2023-05-13T07:30:54.971Z,16.19
2023-05-13T07:33:25.489Z,16.23
2023-05-13T07:35:56.484Z,16.25
2023-05-13T07:38:27.212Z,16.28
2023-05-13T07:40:57.685Z,16.29
2023-05-13T07:43:28.210Z,16.32
2023-05-13T07:45:58.696Z,16.35
2023-05-13T07:48:29.341Z,16.40
2023-05-13T07:50:59.873Z,16.45
2023-05-13T07:53:30.436Z,16.48
2023-05-13T07:56:00.990Z,16.53
2023-05-13T07:58:31.442Z,16.56
2023-05-13T08:01:01.886Z,16.59
2023-05-13T08:03:33.354Z,16.61
2023-05-13T08:06:04.008Z,16.63
2023-05-13T08:08:34.627Z,16.66
2023-05-13T08:11:05.105Z,16.69
2023-05-13T08:13:35.861Z,16.72
2023-05-13T08:16:07.982Z,16.76
2023-05-13T08:18:38.601Z,16.79
2023-05-13T08:21:09.061Z,16.83
2023-05-13T08:23:44.862Z,16.86
2023-05-13T08:26:17.019Z,16.90
2023-05-13T08:31:18.289Z,16.97
2023-05-13T08:33:48.924Z,16.99
2023-05-13T08:36:19.542Z,17.02
2023-05-13T08:38:50.069Z,17.05
2023-05-13T08:41:22.110Z,17.08
2023-05-13T08:43:55.490Z,17.10
2023-05-13T08:46:28.086Z,17.12
2023-05-13T08:49:00.074Z,17.14
2023-05-13T08:51:30.703Z,17.15
2023-05-13T08:54:02.515Z,17.17
2023-05-13T08:56:31.578Z,17.19
2023-05-13T08:59:02.098Z,17.22
2023-05-13T09:01:32.932Z,17.24
2023-05-13T09:04:07.312Z,17.26
2023-05-13T09:06:37.757Z,17.29
2023-05-13T09:09:09.777Z,17.32
2023-05-13T09:11:42.639Z,17.35
2023-05-13T09:14:14.583Z,17.39
2023-05-13T09:16:45.226Z,17.42
2023-05-13T09:19:15.886Z,17.47
2023-05-13T09:21:46.515Z,17.51
2023-05-13T09:24:21.386Z,17.56
2023-05-13T09:26:53.185Z,17.61
2023-05-13T09:29:29.343Z,17.66
2023-05-13T09:32:01.331Z,17.71
2023-05-13T09:34:31.419Z,17.73
2023-05-13T09:37:04.521Z,17.73
2023-05-13T09:39:39.901Z,17.75
2023-05-13T09:42:17.617Z,17.77
2023-05-13T09:44:49.103Z,17.82
2023-05-13T09:47:20.011Z,17.88
2023-05-13T09:49:58.581Z,17.96
2023-05-13T09:52:30.210Z,18.03
2023-05-13T09:55:01.187Z,18.09
2023-05-13T09:57:32.192Z,18.16
2023-05-13T10:00:05.479Z,18.22
2023-05-13T10:02:42.605Z,18.29
2023-05-13T10:05:14.235Z,18.36
2023-05-13T10:07:44.733Z,18.43
2023-05-13T10:10:15.818Z,18.49
2023-05-13T10:12:47.403Z,18.56
2023-05-13T10:15:18.718Z,18.63
2023-05-13T10:17:49.628Z,18.68
2023-05-13T10:20:20.862Z,18.70
2023-05-13T10:22:53.099Z,18.73
2023-05-13T10:25:24.258Z,18.79
2023-05-13T10:27:57.206Z,18.83
2023-05-13T10:30:31.763Z,18.85
2023-05-13T10:33:02.711Z,18.88
2023-05-13T10:35:39.334Z,18.92
2023-05-13T10:38:17.640Z,18.94
2023-05-13T10:41:11.713Z,18.95
2023-05-13T10:43:42.780Z,18.95
2023-05-13T10:46:15.345Z,18.97
2023-05-13T10:48:51.947Z,19.01
2023-05-13T10:51:26.008Z,19.04
2023-05-13T10:53:59.148Z,19.09
2023-05-13T10:56:30.891Z,19.12
2023-05-13T10:59:01.417Z,19.13
2023-05-13T11:01:35.542Z,19.12
2023-05-13T11:04:07.315Z,19.15
2023-05-13T11:06:36.960Z,19.17
2023-05-13T11:09:10.046Z,19.18
2023-05-13T11:11:41.213Z,19.19
2023-05-13T11:14:18.721Z,19.20
2023-05-13T11:16:55.015Z,19.23
2023-05-13T11:19:29.094Z,19.24
2023-05-13T11:22:10.295Z,19.26
2023-05-13T11:24:41.122Z,19.29
2023-05-13T11:27:21.790Z,19.30
2023-05-13T11:29:54.732Z,19.30
2023-05-13T11:32:56.146Z,19.31
2023-05-13T11:35:29.135Z,19.32
2023-05-13T11:38:00.749Z,19.32
2023-05-13T11:40:33.245Z,19.33
2023-05-13T11:43:05.634Z,19.34
2023-05-13T11:45:41.095Z,19.35
2023-05-13T11:48:23.367Z,19.36
2023-05-13T11:50:54.195Z,19.38
2023-05-13T11:53:24.941Z,19.42
2023-05-13T11:55:55.792Z,19.46
2023-05-13T11:58:26.291Z,19.50
2023-05-13T12:00:57.348Z,19.54
2023-05-13T12:03:31.235Z,19.57
2023-05-13T12:06:05.512Z,19.60
2023-05-13T12:08:36.014Z,19.63
2023-05-13T12:11:10.229Z,19.67
2023-05-13T12:13:42.282Z,19.71
2023-05-13T12:16:12.910Z,19.76
2023-05-13T12:18:43.486Z,19.81
2023-05-13T12:21:22.304Z,19.83
2023-05-13T12:23:52.763Z,19.84
2023-05-13T12:26:23.213Z,19.85
2023-05-13T12:28:59.916Z,19.85
2023-05-13T12:31:31.187Z,19.83
2023-05-13T12:34:02.770Z,19.82
2023-05-13T12:36:37.733Z,19.79
2023-05-13T12:39:10.224Z,19.77
2023-05-13T12:41:42.485Z,19.74
2023-05-13T12:44:15.409Z,19.71
2023-05-13T12:46:54.124Z,19.68
2023-05-13T12:49:25.122Z,19.65
2023-05-13T12:51:56.852Z,19.63
2023-05-13T12:54:27.361Z,19.62
2023-05-13T12:56:57.955Z,19.62
2023-05-13T12:59:29.463Z,19.62
2023-05-13T13:02:00.177Z,19.62
2023-05-13T13:04:30.966Z,19.62
2023-05-13T13:07:01.513Z,19.63
2023-05-13T13:09:31.963Z,19.66
2023-05-13T13:12:02.481Z,19.69
2023-05-13T13:14:33.125Z,19.74
2023-05-13T13:17:03.641Z,19.77
2023-05-13T13:19:34.236Z,19.80
2023-05-13T13:22:05.060Z,19.84
2023-05-13T13:24:35.929Z,19.89
2023-05-13T13:27:07.044Z,19.94
2023-05-13T13:29:38.613Z,19.96
2023-05-13T13:32:10.845Z,19.99
2023-05-13T13:34:41.427Z,20.02
2023-05-13T13:37:11.911Z,20.07
2023-05-13T13:39:42.489Z,20.10
2023-05-13T13:42:13.016Z,20.13
2023-05-13T13:44:43.467Z,20.15
2023-05-13T13:55:49.774Z,20.17
2023-05-13T13:58:20.266Z,20.21
2023-05-13T14:00:50.744Z,20.26
2023-05-13T14:03:21.347Z,20.32
2023-05-13T14:05:54.243Z,20.39
2023-05-13T14:08:24.773Z,20.47
2023-05-13T14:10:55.401Z,20.54
2023-05-13T14:13:25.991Z,20.61
2023-05-13T14:15:56.805Z,20.69
2023-05-13T14:18:27.475Z,20.79
2023-05-13T14:20:58.241Z,20.89
2023-05-13T14:23:28.748Z,20.99
2023-05-13T14:25:59.198Z,21.08
2023-05-13T14:28:29.748Z,21.15
2023-05-13T14:31:00.281Z,21.14
2023-05-13T14:33:31.821Z,21.12
2023-05-13T14:36:02.345Z,21.09
2023-05-13T14:38:32.849Z,21.12
2023-05-13T14:41:03.446Z,21.19
2023-05-13T14:43:33.971Z,21.26
2023-05-13T14:46:04.751Z,21.26
2023-05-13T14:48:35.401Z,21.29
2023-05-13T14:51:06.587Z,21.34
2023-05-13T14:53:37.179Z,21.36
2023-05-13T14:56:08.337Z,21.33
2023-05-13T14:58:39.063Z,21.34
2023-05-13T15:01:19.763Z,21.33
2023-05-13T15:04:41.348Z,21.32
2023-05-13T15:07:11.886Z,21.27
2023-05-13T15:09:42.405Z,21.24
2023-05-13T15:12:13.367Z,21.19
2023-05-13T15:14:43.833Z,21.15
2023-05-13T15:17:15.933Z,21.12
2023-05-13T15:19:48.134Z,21.07
2023-05-13T15:22:18.956Z,21.04
2023-05-13T15:24:49.367Z,21.00
2023-05-13T15:27:20.734Z,20.97
2023-05-13T15:29:51.173Z,20.94
2023-05-13T15:32:21.666Z,20.91
2023-05-13T15:34:52.196Z,20.89
2023-05-13T15:37:22.722Z,20.86
2023-05-13T15:39:53.166Z,20.82
2023-05-13T15:42:24.023Z,20.78
2023-05-13T15:44:54.500Z,20.74
2023-05-13T15:47:25.227Z,20.69
2023-05-13T15:49:55.914Z,20.65
2023-05-13T15:52:26.482Z,20.63
2023-05-13T15:54:56.961Z,20.59
2023-05-13T15:57:27.506Z,20.56
2023-05-13T15:59:58.019Z,20.53
2023-05-13T16:02:29.743Z,20.49
2023-05-13T16:05:00.286Z,20.45
2023-05-13T16:07:30.844Z,20.42
2023-05-13T16:10:01.473Z,20.39
2023-05-13T16:12:33.699Z,20.36
2023-05-13T16:15:04.585Z,20.34
2023-05-13T16:17:35.951Z,20.31
2023-05-13T16:20:10.851Z,20.28
2023-05-13T16:22:42.063Z,20.26
2023-05-13T16:25:13.589Z,20.24
2023-05-13T16:27:44.397Z,20.22
2023-05-13T16:30:15.700Z,20.19
2023-05-13T16:32:48.972Z,20.17
2023-05-13T16:35:19.987Z,20.16
2023-05-13T16:37:50.674Z,20.14
2023-05-13T16:40:22.462Z,20.13
2023-05-13T16:42:53.324Z,20.11
2023-05-13T16:45:24.089Z,20.09
2023-05-13T16:47:54.943Z,20.07
2023-05-13T16:50:26.288Z,20.06
2023-05-13T16:52:57.175Z,20.05
2023-05-13T16:55:27.908Z,20.03
2023-05-13T16:58:01.611Z,20.02
2023-05-13T17:00:33.119Z,20.00
2023-05-13T17:03:26.430Z,19.99
2023-05-13T17:05:57.044Z,19.97
2023-05-13T17:08:27.503Z,19.96
2023-05-13T17:10:58.031Z,19.95
2023-05-13T17:13:28.505Z,19.94
2023-05-13T17:15:58.987Z,19.94
2023-05-13T17:18:29.497Z,19.92
2023-05-13T17:21:03.818Z,19.92
2023-05-13T17:23:34.559Z,19.91
2023-05-13T17:26:05.093Z,19.90
2023-05-13T17:29:06.352Z,19.89
2023-05-13T17:31:36.966Z,19.87
2023-05-13T17:34:07.810Z,19.86
2023-05-13T17:36:38.347Z,19.85
2023-05-13T17:39:08.876Z,19.84
2023-05-13T17:41:39.378Z,19.82
2023-05-13T17:44:10.037Z,19.80
2023-05-13T17:46:40.510Z,19.79
2023-05-13T17:49:11.036Z,19.77
2023-05-13T17:51:43.061Z,19.76
2023-05-13T17:54:14.358Z,19.73
2023-05-13T17:56:44.907Z,19.71
2023-05-13T17:59:15.365Z,19.70
2023-05-13T18:01:45.893Z,19.68
2023-05-13T18:04:16.863Z,19.66
2023-05-13T18:06:47.563Z,19.64
2023-05-13T18:09:18.098Z,19.62
2023-05-13T18:11:48.960Z,19.60
2023-05-13T18:14:19.487Z,19.58
2023-05-13T18:16:50.176Z,19.57
2023-05-13T18:19:20.795Z,19.54
2023-05-13T18:21:51.323Z,19.53
2023-05-13T18:24:22.214Z,19.50
2023-05-13T18:26:52.683Z,19.47
2023-05-13T18:29:23.453Z,19.44
2023-05-13T18:31:54.138Z,19.41
2023-05-13T18:34:24.851Z,19.37
2023-05-13T18:36:55.856Z,19.33
2023-05-13T18:39:26.434Z,19.31
2023-05-13T18:41:56.912Z,19.28
2023-05-13T18:44:27.459Z,19.25
2023-05-13T18:46:57.991Z,19.22
2023-05-13T18:49:29.469Z,19.19
2023-05-13T18:52:00.383Z,19.16
2023-05-13T18:54:31.272Z,19.12
2023-05-13T18:57:01.847Z,19.09
2023-05-13T18:59:32.324Z,19.06
2023-05-13T19:02:03.374Z,19.01
2023-05-13T19:04:34.157Z,18.98
2023-05-13T19:07:04.886Z,18.95
2023-05-13T19:09:36.130Z,18.93
2023-05-13T19:12:07.643Z,18.90
2023-05-13T19:14:39.111Z,18.87
2023-05-13T19:17:09.734Z,18.85
2023-05-13T19:19:42.247Z,18.84
2023-05-13T19:22:12.877Z,18.82
2023-05-13T19:24:43.318Z,18.80
2023-05-13T19:27:13.868Z,18.78
2023-05-13T19:29:44.510Z,18.74
2023-05-13T19:32:14.936Z,18.71
2023-05-13T19:34:45.433Z,18.67
2023-05-13T19:37:15.949Z,18.64
2023-05-13T19:39:46.692Z,18.62
2023-05-13T19:42:17.358Z,18.58
2023-05-13T19:44:47.837Z,18.56
2023-05-13T19:47:18.332Z,18.53
2023-05-13T19:49:48.919Z,18.49
2023-05-13T19:52:19.546Z,18.47
2023-05-13T19:54:50.040Z,18.44
2023-05-13T19:57:21.313Z,18.42
2023-05-13T19:59:52.463Z,18.40
2023-05-13T20:02:23.010Z,18.37
2023-05-13T20:04:53.521Z,18.36
2023-05-13T20:07:24.039Z,18.34
2023-05-13T20:09:54.696Z,18.32
2023-05-13T20:12:25.526Z,18.31
2023-05-13T20:14:58.245Z,18.29
2023-05-13T20:17:30.235Z,18.27
2023-05-13T20:20:01.352Z,18.24
2023-05-13T20:22:32.604Z,18.23
2023-05-13T20:25:04.123Z,18.21
2023-05-13T20:27:34.960Z,18.19
2023-05-13T20:30:07.307Z,18.16
2023-05-13T20:32:37.833Z,18.13
2023-05-13T20:35:10.324Z,18.09
2023-05-13T20:37:40.960Z,18.06
2023-05-13T20:40:12.661Z,18.04
2023-05-13T20:42:43.109Z,18.01
2023-05-13T20:45:15.044Z,17.99
2023-05-13T20:47:45.530Z,17.97
2023-05-13T20:50:16.779Z,17.94
2023-05-13T20:52:47.322Z,17.91
2023-05-13T20:55:18.049Z,17.89
2023-05-13T20:57:48.788Z,17.87
2023-05-13T21:00:20.262Z,17.85
2023-05-13T21:02:52.088Z,17.84
2023-05-13T21:05:22.975Z,17.82
2023-05-13T21:07:54.085Z,17.80
2023-05-13T21:10:25.298Z,17.79
2023-05-13T21:12:56.063Z,17.77
2023-05-13T21:15:26.608Z,17.76
2023-05-13T21:17:57.336Z,17.75
2023-05-13T21:20:28.013Z,17.74
2023-05-13T21:22:58.487Z,17.73
2023-05-13T21:25:28.997Z,17.72
2023-05-13T21:27:59.447Z,17.70
2023-05-13T21:30:32.247Z,17.69
2023-05-13T21:33:03.063Z,17.66
2023-05-13T21:35:33.702Z,17.64
2023-05-13T21:38:11.858Z,17.62
2023-05-13T21:40:44.181Z,17.60
2023-05-13T21:43:14.665Z,17.59
2023-05-13T21:45:47.181Z,17.55
2023-05-13T21:48:17.791Z,17.53
2023-05-13T21:50:48.387Z,17.51
2023-05-13T21:53:18.975Z,17.49
2023-05-13T21:55:49.509Z,17.48
2023-05-13T21:58:21.892Z,17.45
2023-05-13T22:00:54.797Z,17.42
2023-05-13T22:03:25.565Z,17.40
2023-05-13T22:05:56.095Z,17.39
2023-05-13T22:08:26.546Z,17.37
2023-05-13T22:10:57.021Z,17.35
2023-05-13T22:13:27.514Z,17.34
2023-05-13T22:15:58.014Z,17.33
2023-05-13T22:18:28.792Z,17.32
2023-05-13T22:21:00.834Z,17.30
2023-05-13T22:23:29.830Z,17.27
2023-05-13T22:26:00.366Z,17.23
2023-05-13T22:28:31.316Z,17.20
2023-05-13T22:31:01.802Z,17.18
2023-05-13T22:33:32.294Z,17.15
2023-05-13T22:36:03.046Z,17.12
2023-05-13T22:38:33.503Z,17.10
2023-05-13T22:41:03.964Z,17.09
2023-05-13T22:43:34.652Z,17.07
2023-05-13T22:46:05.483Z,17.04
2023-05-13T22:48:35.987Z,17.02
2023-05-13T22:51:06.530Z,17.00
2023-05-13T22:53:37.005Z,16.98
2023-05-13T22:56:08.742Z,16.96
2023-05-13T22:58:37.680Z,16.94
2023-05-13T23:01:08.199Z,16.90
2023-05-13T23:03:38.812Z,16.88
2023-05-13T23:06:10.288Z,16.84
2023-05-13T23:08:40.830Z,16.81
2023-05-13T23:11:11.452Z,16.78
2023-05-13T23:13:41.957Z,16.75
2023-05-13T23:16:12.440Z,16.73
2023-05-13T23:18:42.934Z,16.72
2023-05-13T23:21:13.459Z,16.71
2023-05-13T23:23:43.991Z,16.71
2023-05-13T23:26:14.518Z,16.70
2023-05-13T23:28:45.052Z,16.70
2023-05-13T23:31:16.629Z,16.68
2023-05-13T23:33:47.110Z,16.67
2023-05-13T23:36:17.663Z,16.64
2023-05-13T23:38:48.191Z,16.61
2023-05-13T23:41:18.926Z,16.59
2023-05-13T23:43:49.400Z,16.57
2023-05-13T23:46:19.932Z,16.53
2023-05-13T23:48:50.449Z,16.51
2023-05-13T23:51:21.150Z,16.48
2023-05-13T23:53:51.989Z,16.46
2023-05-13T23:56:22.587Z,16.44
2023-05-13T23:58:53.355Z,16.42
